createdAt,value
2023-05-20T00:00:11.774Z,0.90
2023-05-20T00:02:41.375Z,1.03
2023-05-20T00:05:11.763Z,1.00
2023-05-20T00:07:40.226Z,1.00
2023-05-20T00:10:10.841Z,1.07
2023-05-20T00:12:39.933Z,0.90
2023-05-20T00:15:12.102Z,1.10
2023-05-20T00:17:40.832Z,1.07
2023-05-20T00:20:12.601Z,0.97
2023-05-20T00:22:41.238Z,0.97
2023-05-20T00:25:10.687Z,1.37
2023-05-20T00:27:39.391Z,1.57
2023-05-20T00:30:10.439Z,1.20
2023-05-20T00:32:39.410Z,1.30
2023-05-20T00:35:12.025Z,1.53
2023-05-20T00:37:40.769Z,1.53
2023-05-20T00:40:13.093Z,1.73
2023-05-20T00:42:43.438Z,1.37
2023-05-20T00:45:12.791Z,1.30
2023-05-20T00:47:41.561Z,1.47
2023-05-20T00:50:13.052Z,1.07
2023-05-20T00:52:45.270Z,1.30
2023-05-20T00:55:14.104Z,1.07
2023-05-20T00:57:42.735Z,1.20
2023-05-20T01:00:13.745Z,1.23
2023-05-20T01:02:42.498Z,1.20
2023-05-20T01:05:12.589Z,1.20
2023-05-20T01:07:41.552Z,1.23
2023-05-20T01:10:12.635Z,1.10
2023-05-20T01:12:47.905Z,1.00
2023-05-20T01:15:17.244Z,1.10
2023-05-20T01:17:48.093Z,0.97
2023-05-20T01:20:19.160Z,1.00
2023-05-20T01:22:55.911Z,1.40
2023-05-20T01:25:26.607Z,1.03
2023-05-20T01:27:57.856Z,1.13
2023-05-20T01:30:32.770Z,1.17
2023-05-20T01:33:07.320Z,1.13
2023-05-20T01:35:36.778Z,0.90
2023-05-20T01:38:08.452Z,1.10
2023-05-20T01:40:37.823Z,1.00
2023-05-20T01:43:07.664Z,1.03
2023-05-20T01:45:38.336Z,1.20
2023-05-20T01:48:08.034Z,1.17
2023-05-20T01:50:36.472Z,1.10
2023-05-20T01:53:08.340Z,1.23
2023-05-20T01:55:37.398Z,1.20
2023-05-20T01:58:06.849Z,1.03
2023-05-20T02:00:35.515Z,1.13
2023-05-20T02:03:04.250Z,1.20
2023-05-20T02:05:32.856Z,1.10
2023-05-20T02:08:01.959Z,1.17
2023-05-20T02:10:31.894Z,1.10
2023-05-20T02:13:00.646Z,1.30
2023-05-20T02:15:29.155Z,1.20
2023-05-20T02:17:59.155Z,1.10
2023-05-20T02:20:27.819Z,1.00
2023-05-20T02:22:56.153Z,1.30
2023-05-20T02:25:25.027Z,1.40
2023-05-20T02:27:55.010Z,1.10
2023-05-20T02:30:23.945Z,1.03
2023-05-20T02:32:52.679Z,1.23
2023-05-20T02:35:21.086Z,1.30
2023-05-20T02:37:50.296Z,1.20
2023-05-20T02:40:19.208Z,0.97
2023-05-20T02:42:48.131Z,1.30
2023-05-20T02:45:18.054Z,1.20
2023-05-20T02:47:47.538Z,1.00
2023-05-20T02:50:16.435Z,1.00
2023-05-20T02:52:45.594Z,0.93
2023-05-20T02:55:14.513Z,1.33
2023-05-20T02:57:43.055Z,1.17
2023-05-20T03:00:14.628Z,1.10
2023-05-20T03:02:44.781Z,1.33
2023-05-20T03:05:13.547Z,1.27
2023-05-20T03:07:42.354Z,0.93
2023-05-20T03:10:12.029Z,1.30
2023-05-20T03:12:41.551Z,1.00
2023-05-20T03:15:12.652Z,1.20
2023-05-20T03:17:41.295Z,1.00
2023-05-20T03:20:12.937Z,1.10
2023-05-20T03:22:42.691Z,1.00
2023-05-20T03:25:11.718Z,1.10
2023-05-20T03:27:40.272Z,1.00
2023-05-20T03:30:10.645Z,0.90
2023-05-20T03:32:39.050Z,1.07
2023-05-20T03:35:10.761Z,1.07
2023-05-20T03:37:40.544Z,1.00
2023-05-20T03:40:11.333Z,0.90
2023-05-20T03:42:41.708Z,1.03
2023-05-20T03:45:11.604Z,1.20
2023-05-20T03:47:50.577Z,1.30
2023-05-20T03:50:21.998Z,1.00
2023-05-20T03:52:50.509Z,1.07
2023-05-20T03:55:22.073Z,1.20
2023-05-20T03:57:50.800Z,1.10
2023-05-20T04:00:19.665Z,1.13
2023-05-20T04:02:50.304Z,0.90
2023-05-20T04:05:22.133Z,0.90
2023-05-20T04:07:50.800Z,0.97
2023-05-20T04:10:21.847Z,0.93
2023-05-20T04:12:52.449Z,0.97
2023-05-20T04:15:23.861Z,0.90
2023-05-20T04:17:58.010Z,0.90
2023-05-20T04:20:28.515Z,0.80
2023-05-20T04:23:00.291Z,1.00
2023-05-20T04:25:29.000Z,0.97
2023-05-20T04:27:59.733Z,1.00
2023-05-20T04:30:28.327Z,1.10
2023-05-20T04:32:56.778Z,1.00
2023-05-20T04:35:26.977Z,1.00
2023-05-20T04:37:58.838Z,1.10
2023-05-20T04:40:27.430Z,0.87
2023-05-20T04:42:55.912Z,1.10
2023-05-20T04:45:25.197Z,1.00
2023-05-20T04:47:53.629Z,1.20
2023-05-20T04:50:22.423Z,1.10
2023-05-20T04:52:52.624Z,1.10
2023-05-20T04:55:21.596Z,1.10
2023-05-20T04:57:49.986Z,1.30
2023-05-20T05:00:19.393Z,1.30
2023-05-20T05:02:48.920Z,1.30
2023-05-20T05:05:18.214Z,1.57
2023-05-20T05:07:46.728Z,1.07
2023-05-20T05:10:16.824Z,1.23
2023-05-20T05:12:45.951Z,1.20
2023-05-20T05:15:14.346Z,1.40
2023-05-20T05:17:46.415Z,1.20
2023-05-20T05:20:15.579Z,1.23
2023-05-20T05:22:44.129Z,1.27
2023-05-20T05:25:13.765Z,0.97
2023-05-20T05:27:45.589Z,1.00
2023-05-20T05:30:14.545Z,1.20
2023-05-20T05:32:43.406Z,1.20
2023-05-20T05:35:12.486Z,1.40
2023-05-20T05:37:41.564Z,1.20
2023-05-20T05:40:11.937Z,1.40
2023-05-20T05:42:40.666Z,1.23
2023-05-20T05:45:13.247Z,1.30
2023-05-20T05:47:43.570Z,1.30
2023-05-20T05:50:12.282Z,1.37
2023-05-20T05:52:41.313Z,1.30
2023-05-20T05:55:13.248Z,1.27
2023-05-20T05:57:43.476Z,1.30
2023-05-20T06:00:18.338Z,1.33
2023-05-20T06:02:47.342Z,1.10
2023-05-20T06:05:29.771Z,1.23
2023-05-20T06:07:58.955Z,1.23
2023-05-20T06:10:28.259Z,1.37
2023-05-20T06:12:57.619Z,1.30
2023-05-20T06:15:29.693Z,1.50
2023-05-20T06:17:58.596Z,1.23
2023-05-20T06:20:27.927Z,1.27
2023-05-20T06:22:56.910Z,1.10
2023-05-20T06:25:30.058Z,1.20
2023-05-20T06:27:58.664Z,1.10
2023-05-20T06:30:28.913Z,1.33
2023-05-20T06:32:57.689Z,1.20
2023-05-20T06:35:26.112Z,1.20
2023-05-20T06:37:55.419Z,1.30
2023-05-20T06:40:23.854Z,1.40
2023-05-20T06:42:52.285Z,1.20
2023-05-20T06:45:41.423Z,1.37
2023-05-20T06:48:30.525Z,1.43
2023-05-20T06:50:59.594Z,1.30
2023-05-20T06:53:28.290Z,1.27
2023-05-20T06:55:56.910Z,1.30
2023-05-20T06:58:25.538Z,1.60
2023-05-20T07:00:58.502Z,1.53
2023-05-20T07:03:28.269Z,1.33
2023-05-20T07:05:56.865Z,1.30
2023-05-20T07:08:26.356Z,1.40
2023-05-20T07:10:57.194Z,1.50
2023-05-20T07:13:26.446Z,1.30
2023-05-20T07:15:55.294Z,1.60
2023-05-20T07:18:25.468Z,1.30
2023-05-20T07:20:56.863Z,1.30
2023-05-20T07:23:38.433Z,1.57
2023-05-20T07:26:07.375Z,1.73
2023-05-20T07:28:36.771Z,1.87
2023-05-20T07:31:08.698Z,1.70
2023-05-20T07:33:45.603Z,1.30
2023-05-20T07:36:14.967Z,1.53
2023-05-20T07:39:00.615Z,1.90
2023-05-20T07:41:33.289Z,1.60
2023-05-20T07:44:04.135Z,1.67
2023-05-20T07:46:35.745Z,1.70
2023-05-20T07:49:07.104Z,1.90
2023-05-20T07:51:36.648Z,1.77
2023-05-20T07:54:05.340Z,2.23
2023-05-20T07:56:34.322Z,1.90
2023-05-20T07:59:03.796Z,1.83
2023-05-20T08:01:38.042Z,1.80
2023-05-20T08:04:08.889Z,2.17
2023-05-20T08:06:41.340Z,1.70
2023-05-20T08:09:13.755Z,1.80
2023-05-20T08:11:48.091Z,1.83
2023-05-20T08:14:17.254Z,2.00
2023-05-20T08:16:52.987Z,1.90
2023-05-20T08:19:24.913Z,1.50
2023-05-20T08:21:53.484Z,1.80
2023-05-20T08:24:21.955Z,1.87
2023-05-20T08:26:50.939Z,2.07
2023-05-20T08:29:21.131Z,1.73
2023-05-20T08:31:49.569Z,2.00
2023-05-20T08:34:19.558Z,2.07
2023-05-20T08:36:49.628Z,1.80
2023-05-20T08:39:18.040Z,1.97
2023-05-20T08:41:48.954Z,2.03
2023-05-20T08:44:18.797Z,2.00
2023-05-20T08:46:48.039Z,1.93
2023-05-20T08:49:16.572Z,1.80
2023-05-20T08:51:46.289Z,2.10
2023-05-20T08:54:18.126Z,1.83
2023-05-20T08:56:46.936Z,2.00
2023-05-20T08:59:15.752Z,1.90
2023-05-20T09:01:46.117Z,2.20
2023-05-20T09:04:14.625Z,2.37
2023-05-20T09:06:47.320Z,2.00
2023-05-20T09:09:17.655Z,1.97
2023-05-20T09:11:46.286Z,2.27
2023-05-20T09:14:14.731Z,2.10
2023-05-20T09:16:43.941Z,2.03
2023-05-20T09:19:12.620Z,2.10
2023-05-20T09:21:43.817Z,2.07
2023-05-20T09:24:12.376Z,2.27
2023-05-20T09:26:43.015Z,2.37
2023-05-20T09:29:11.388Z,2.50
2023-05-20T09:31:39.978Z,2.30
2023-05-20T09:34:09.294Z,2.40
2023-05-20T09:36:38.162Z,2.20
2023-05-20T09:39:09.987Z,2.17
2023-05-20T09:41:51.942Z,2.60
2023-05-20T09:44:23.198Z,2.30
2023-05-20T09:46:54.474Z,2.63
2023-05-20T09:49:24.249Z,2.23
2023-05-20T09:51:54.057Z,2.37
2023-05-20T09:54:24.783Z,2.43
2023-05-20T09:56:56.081Z,2.73
2023-05-20T09:59:26.350Z,2.37
2023-05-20T10:01:54.892Z,2.37
2023-05-20T10:04:26.721Z,2.43
2023-05-20T10:07:15.560Z,2.53
2023-05-20T10:10:01.401Z,2.23
2023-05-20T10:12:37.587Z,2.30
2023-05-20T10:15:30.415Z,2.40
2023-05-20T10:18:12.090Z,2.53
2023-05-20T10:20:48.496Z,2.10
2023-05-20T10:23:24.349Z,1.90
2023-05-20T10:25:54.175Z,2.30
2023-05-20T10:28:36.827Z,2.13
2023-05-20T10:31:17.781Z,2.40
2023-05-20T10:33:48.059Z,2.20
2023-05-20T10:36:27.876Z,2.40
2023-05-20T10:38:58.836Z,2.20
2023-05-20T10:41:29.907Z,2.30
2023-05-20T10:44:04.577Z,2.03
2023-05-20T10:46:44.193Z,1.93
2023-05-20T10:49:25.213Z,2.47
2023-05-20T10:51:56.829Z,2.40
2023-05-20T10:54:25.255Z,2.60
2023-05-20T10:56:54.785Z,2.60
2023-05-20T10:59:25.054Z,2.33
2023-05-20T11:01:55.608Z,2.10
2023-05-20T11:04:24.853Z,2.50
2023-05-20T11:06:56.226Z,2.30
2023-05-20T11:09:24.977Z,2.47
2023-05-20T11:11:55.368Z,2.30
2023-05-20T11:14:25.311Z,2.20
2023-05-20T11:16:55.005Z,2.20
2023-05-20T11:19:23.529Z,2.70
2023-05-20T11:21:52.234Z,2.33
2023-05-20T11:24:28.409Z,2.43
2023-05-20T11:26:58.063Z,2.20
2023-05-20T11:29:32.185Z,2.40
2023-05-20T11:32:01.813Z,2.20
2023-05-20T11:34:36.425Z,2.47
2023-05-20T11:37:09.060Z,2.77
2023-05-20T11:39:38.983Z,2.20
2023-05-20T11:42:07.588Z,2.40
2023-05-20T11:44:38.405Z,2.17
2023-05-20T11:47:07.255Z,2.20
2023-05-20T11:49:41.851Z,2.40
2023-05-20T11:52:12.233Z,2.23
2023-05-20T11:54:40.698Z,2.17
2023-05-20T11:57:09.375Z,1.93
2023-05-20T11:59:40.976Z,2.10
2023-05-20T12:02:09.482Z,1.70
2023-05-20T12:04:37.961Z,1.90
2023-05-20T12:07:09.477Z,2.00
2023-05-20T12:09:38.261Z,1.60
2023-05-20T12:12:07.813Z,1.80
2023-05-20T12:14:36.237Z,1.67
2023-05-20T12:17:06.627Z,1.80
2023-05-20T12:19:36.665Z,1.70
2023-05-20T12:22:06.045Z,1.57
2023-05-20T12:24:34.463Z,1.87
2023-05-20T12:27:04.136Z,1.60
2023-05-20T12:29:32.586Z,1.70
2023-05-20T12:32:01.734Z,1.60
2023-05-20T12:34:33.137Z,1.80
2023-05-20T12:37:01.548Z,1.90
2023-05-20T12:39:30.029Z,1.57
2023-05-20T12:41:58.713Z,1.70
2023-05-20T12:44:27.946Z,1.90
2023-05-20T12:46:57.243Z,1.63
2023-05-20T12:49:26.057Z,2.10
2023-05-20T12:51:55.947Z,2.00
2023-05-20T12:54:28.132Z,1.90
2023-05-20T12:56:57.131Z,1.70
2023-05-20T12:59:26.307Z,1.93
2023-05-20T13:01:54.889Z,2.13
2023-05-20T13:04:23.230Z,1.63
2023-05-20T13:06:51.753Z,1.90
2023-05-20T13:09:21.914Z,1.73
2023-05-20T13:11:50.306Z,1.70
2023-05-20T13:14:18.810Z,1.90
2023-05-20T13:16:47.672Z,2.00
2023-05-20T13:19:16.440Z,1.70
2023-05-20T13:21:44.921Z,1.87
2023-05-20T13:24:13.540Z,1.57
2023-05-20T13:26:44.141Z,1.50
2023-05-20T13:29:13.103Z,1.70
2023-05-20T13:31:41.569Z,1.50
2023-05-20T13:34:10.507Z,1.70
2023-05-20T13:36:39.086Z,1.50
2023-05-20T13:39:07.890Z,1.70
2023-05-20T13:41:36.274Z,1.63
2023-05-20T13:44:06.622Z,1.67
2023-05-20T13:46:35.300Z,1.60
2023-05-20T13:49:03.768Z,1.80
2023-05-20T13:51:32.565Z,1.50
2023-05-20T13:54:01.012Z,1.80
2023-05-20T13:56:29.432Z,1.60
2023-05-20T13:58:58.080Z,1.70
2023-05-20T14:01:29.160Z,1.50
2023-05-20T14:03:58.407Z,1.60
2023-05-20T14:06:29.956Z,1.80
2023-05-20T14:08:59.246Z,1.47
2023-05-20T14:11:27.712Z,1.43
2023-05-20T14:13:56.413Z,1.60
2023-05-20T14:16:25.468Z,1.60
2023-05-20T14:18:55.716Z,1.63
2023-05-20T14:21:24.176Z,1.70
2023-05-20T14:23:52.577Z,1.70
2023-05-20T14:26:21.832Z,1.50
2023-05-20T14:28:50.732Z,1.63
2023-05-20T14:31:19.334Z,1.67
2023-05-20T14:33:47.826Z,2.07
2023-05-20T14:36:18.196Z,1.93
2023-05-20T14:38:48.841Z,1.57
2023-05-20T14:41:18.122Z,1.50
2023-05-20T14:43:46.565Z,1.40
2023-05-20T14:46:15.463Z,1.70
2023-05-20T14:48:44.345Z,1.63
2023-05-20T14:51:13.481Z,1.30
2023-05-20T14:53:43.386Z,1.70
2023-05-20T14:56:11.917Z,1.70
2023-05-20T14:58:40.788Z,1.97
2023-05-20T15:01:09.722Z,1.70
2023-05-20T15:03:38.585Z,1.77
2023-05-20T15:06:07.531Z,1.57
2023-05-20T15:08:35.974Z,1.67
2023-05-20T15:11:06.430Z,1.70
2023-05-20T15:13:34.832Z,1.60
2023-05-20T15:16:03.285Z,1.50
2023-05-20T15:18:31.778Z,1.57
2023-05-20T15:21:00.653Z,1.50
2023-05-20T15:23:29.250Z,1.60
2023-05-20T15:25:58.929Z,1.70
2023-05-20T15:28:28.832Z,1.80
2023-05-20T15:30:58.541Z,1.80
2023-05-20T15:33:27.801Z,1.90
2023-05-20T15:35:56.410Z,1.70
2023-05-20T15:38:24.812Z,2.00
2023-05-20T15:40:53.313Z,1.90
2023-05-20T15:43:21.686Z,1.80
2023-05-20T15:45:51.633Z,1.87
2023-05-20T15:48:20.893Z,1.87
2023-05-20T15:50:49.514Z,2.00
2023-05-20T15:53:17.880Z,1.97
2023-05-20T15:55:46.763Z,1.73
2023-05-20T15:58:15.401Z,1.73
2023-05-20T16:00:43.981Z,1.70
2023-05-20T16:03:14.008Z,1.93
2023-05-20T16:05:42.704Z,1.93
2023-05-20T16:08:11.159Z,1.80
2023-05-20T16:10:39.661Z,1.70
2023-05-20T16:13:08.495Z,1.70
2023-05-20T16:15:38.467Z,1.90
2023-05-20T16:18:07.331Z,1.63
2023-05-20T16:20:37.514Z,1.60
2023-05-20T16:23:06.299Z,1.73
2023-05-20T16:25:35.073Z,1.80
2023-05-20T16:28:03.538Z,1.60
2023-05-20T16:30:32.152Z,1.77
2023-05-20T16:33:00.755Z,1.67
2023-05-20T16:35:29.231Z,1.40
2023-05-20T16:37:59.702Z,1.60
2023-05-20T16:40:28.133Z,1.70
2023-05-20T16:42:56.649Z,1.40
2023-05-20T16:45:25.053Z,1.70
2023-05-20T16:47:53.805Z,1.80
2023-05-20T16:50:22.385Z,1.77
2023-05-20T16:52:51.227Z,1.60
2023-05-20T16:55:21.286Z,1.60
2023-05-20T16:57:50.568Z,1.70
2023-05-20T17:00:19.836Z,1.50
2023-05-20T17:02:48.306Z,1.77
2023-05-20T17:05:17.165Z,1.80
2023-05-20T17:07:45.946Z,2.00
2023-05-20T17:10:14.386Z,1.90
2023-05-20T17:12:44.813Z,2.03
2023-05-20T17:15:19.606Z,1.60
2023-05-20T17:17:48.100Z,1.63
2023-05-20T17:20:16.589Z,1.70
2023-05-20T17:22:45.140Z,1.60
2023-05-20T17:25:13.625Z,1.67
2023-05-20T17:27:43.457Z,1.77
2023-05-20T17:30:13.283Z,1.30
2023-05-20T17:32:41.825Z,1.60
2023-05-20T17:35:11.045Z,1.80
2023-05-20T17:37:39.814Z,2.10
2023-05-20T17:40:09.735Z,1.77
2023-05-20T17:42:38.291Z,1.80
2023-05-20T17:45:10.229Z,2.17
2023-05-20T17:47:39.040Z,1.60
2023-05-20T17:50:10.115Z,1.80
2023-05-20T17:52:38.595Z,1.83
2023-05-20T17:55:08.062Z,2.00
2023-05-20T17:57:36.954Z,2.10
2023-05-20T18:00:11.005Z,2.30
2023-05-20T18:02:47.605Z,2.30
2023-05-20T18:05:17.271Z,2.23
2023-05-20T18:07:46.012Z,2.50
2023-05-20T18:10:15.306Z,2.40
2023-05-20T18:12:45.352Z,2.07
2023-05-20T18:15:17.833Z,2.27
2023-05-20T18:17:47.070Z,2.17
2023-05-20T18:20:16.500Z,2.40
2023-05-20T18:22:46.448Z,2.30
2023-05-20T18:25:16.569Z,2.30
2023-05-20T18:27:45.276Z,2.40
2023-05-20T18:30:15.105Z,2.37
2023-05-20T18:32:43.489Z,2.23
2023-05-20T18:35:12.229Z,2.60
2023-05-20T18:37:41.182Z,2.73
2023-05-20T18:40:11.008Z,2.47
2023-05-20T18:42:39.427Z,2.03
2023-05-20T18:45:09.769Z,2.53
2023-05-20T18:47:40.019Z,2.80
2023-05-20T18:50:09.724Z,2.63
2023-05-20T18:52:38.866Z,2.30
2023-05-20T18:55:08.976Z,2.30
2023-05-20T18:57:37.536Z,2.40
2023-05-20T19:00:12.198Z,2.20
2023-05-20T19:02:43.178Z,2.93
2023-05-20T19:05:13.916Z,2.63
2023-05-20T19:07:42.710Z,2.70
2023-05-20T19:10:11.758Z,2.53
2023-05-20T19:12:40.287Z,2.60
2023-05-20T19:15:10.987Z,2.70
2023-05-20T19:17:41.170Z,2.43
2023-05-20T19:20:11.151Z,2.50
2023-05-20T19:22:39.647Z,2.70
2023-05-20T19:25:08.541Z,2.70
2023-05-20T19:27:37.163Z,2.40
2023-05-20T19:30:07.897Z,2.63
2023-05-20T19:32:38.715Z,2.60
2023-05-20T19:35:10.152Z,2.60
2023-05-20T19:37:39.292Z,2.50
2023-05-20T19:40:09.597Z,2.70
2023-05-20T19:42:38.011Z,2.30
2023-05-20T19:45:08.637Z,2.50
2023-05-20T19:47:38.155Z,2.57
2023-05-20T19:50:10.532Z,3.10
2023-05-20T19:52:39.089Z,2.70
2023-05-20T19:55:08.475Z,3.13
2023-05-20T19:57:36.994Z,2.80
2023-05-20T20:00:08.204Z,2.90
2023-05-20T20:02:41.758Z,3.00
2023-05-20T20:05:12.470Z,3.00
2023-05-20T20:07:41.420Z,3.07
2023-05-20T20:10:11.238Z,2.80
2023-05-20T20:12:39.675Z,3.20
2023-05-20T20:15:10.178Z,3.30
2023-05-20T20:17:45.782Z,3.00
2023-05-20T20:20:16.829Z,3.20
2023-05-20T20:22:45.688Z,3.20
2023-05-20T20:25:15.615Z,3.40
2023-05-20T20:27:45.419Z,3.57
2023-05-20T20:30:16.140Z,3.27
2023-05-20T20:32:44.591Z,3.57
2023-05-20T20:35:13.396Z,3.30
2023-05-20T20:37:44.702Z,3.13
2023-05-20T20:40:14.388Z,3.27
2023-05-20T20:42:45.274Z,3.20
2023-05-20T20:45:15.158Z,3.20
2023-05-20T20:47:44.888Z,3.53
2023-05-20T20:50:13.886Z,2.87
2023-05-20T20:52:44.815Z,3.03
2023-05-20T20:55:13.897Z,2.97
2023-05-20T20:57:42.604Z,3.03
2023-05-20T21:00:17.467Z,2.93
2023-05-20T21:02:46.638Z,3.00
2023-05-20T21:05:16.823Z,3.17
2023-05-20T21:07:49.989Z,3.23
2023-05-20T21:10:18.616Z,3.17
2023-05-20T21:12:47.232Z,3.00
2023-05-20T21:15:15.662Z,2.93
2023-05-20T21:17:44.187Z,2.90
2023-05-20T21:20:15.201Z,3.10
2023-05-20T21:22:43.947Z,3.20
2023-05-20T21:25:14.225Z,3.07
2023-05-20T21:27:42.872Z,3.47
2023-05-20T21:30:13.439Z,2.80
2023-05-20T21:32:42.392Z,2.83
2023-05-20T21:35:11.316Z,2.87
2023-05-20T21:37:39.777Z,3.20
2023-05-20T21:40:09.836Z,2.90
2023-05-20T21:42:40.036Z,3.10
2023-05-20T21:45:10.306Z,2.83
2023-05-20T21:47:38.812Z,2.83
2023-05-20T21:50:09.095Z,3.07
2023-05-20T21:52:39.697Z,3.07
2023-05-20T21:55:10.000Z,3.23
2023-05-20T21:57:39.805Z,3.50
2023-05-20T22:00:15.171Z,3.07
2023-05-20T22:02:43.839Z,3.17
2023-05-20T22:05:12.934Z,3.10
2023-05-20T22:07:43.322Z,3.20
2023-05-20T22:10:13.730Z,3.00
2023-05-20T22:12:44.504Z,3.10
2023-05-20T22:15:13.515Z,2.93
2023-05-20T22:17:42.581Z,2.80
2023-05-20T22:20:13.351Z,2.80
2023-05-20T22:22:42.606Z,2.97
2023-05-20T22:25:12.598Z,3.43
2023-05-20T22:27:42.897Z,3.07
2023-05-20T22:30:14.389Z,3.07
2023-05-20T22:32:43.261Z,3.17
2023-05-20T22:35:13.191Z,3.17
2023-05-20T22:37:41.792Z,2.90
2023-05-20T22:40:11.951Z,2.73
2023-05-20T22:42:40.696Z,2.90
2023-05-20T22:45:12.517Z,2.77
2023-05-20T22:47:41.130Z,2.33
2023-05-20T22:50:10.389Z,2.33
2023-05-20T22:52:38.777Z,2.53
2023-05-20T22:55:08.463Z,2.77
2023-05-20T22:57:37.257Z,3.13
2023-05-20T23:00:07.932Z,2.97
2023-05-20T23:02:41.525Z,2.80
2023-05-20T23:05:11.893Z,2.47
2023-05-20T23:07:40.332Z,3.10
2023-05-20T23:10:10.120Z,2.90
2023-05-20T23:12:38.591Z,2.90
2023-05-20T23:15:09.067Z,2.97
2023-05-20T23:17:39.669Z,2.77
2023-05-20T23:20:11.183Z,2.80
2023-05-20T23:22:39.660Z,2.97
2023-05-20T23:25:09.706Z,2.70
2023-05-20T23:27:38.799Z,2.83
2023-05-20T23:30:10.865Z,2.60
2023-05-20T23:32:41.706Z,3.07
2023-05-20T23:35:11.778Z,2.67
2023-05-20T23:37:42.107Z,2.53
2023-05-20T23:40:11.728Z,2.60
2023-05-20T23:42:40.487Z,2.93
2023-05-20T23:45:10.450Z,2.80
2023-05-20T23:47:40.623Z,3.10
2023-05-20T23:50:10.074Z,3.03
2023-05-20T23:52:40.310Z,2.97
2023-05-20T23:55:12.888Z,2.83
2023-05-20T23:57:41.527Z,2.83
